Flight Track Log - Related Links

Times and Time Zones

All times are in EDT time to prevent confusion due to time zone crossing. See the G52652 flight status page for this flight to view local times or setup timezone preferences in your user account.

Time Position Orientation Groundspeed Altitude Reporting Facility
EDT Latitude Longitude Course Direction KTS MPH feet Rate Location/Type
Sun 12:43:00 AM 23.3202 108.0272 349° North  Level Estimated
Sun 12:44:00 AM 23.4091 108.0090 349° North  Level Estimated
Sun 12:45:00 AM 23.4981 107.9907 349° North  Level Estimated
Sun 12:46:00 AM 23.5871 107.9724 349° North  Level Estimated
Sun 12:47:00 AM 23.6760 107.9540 349° North  Level Estimated
Sun 12:48:00 AM 23.7650 107.9357 349° North  Level Estimated
Sun 12:49:00 AM 23.8540 107.9173 349° North  Level Estimated
Sun 12:50:00 AM 23.9429 107.8989 349° North  Level Estimated
Sun 12:51:00 AM 24.0319 107.8805 349° North  Level Estimated
Sun 12:52:00 AM 24.1209 107.8620 349° North  Level Estimated
Sun 12:53:00 AM 24.2098 107.8435 349° North  Level Estimated
Sun 12:54:00 AM 24.2988 107.8250 349° North  Level Estimated
Sun 12:55:00 AM 24.3877 107.8065 349° North  Level Estimated
Sun 12:56:00 AM 24.4767 107.7879 349° North  Level Estimated
Sun 12:57:00 AM 24.5656 107.7693 349° North  Level Estimated
Sun 12:58:00 AM 24.6546 107.7507 349° North  Level Estimated
Sun 12:59:00 AM 24.7435 107.7320 349° North  Level Estimated
Sun 01:00:00 AM 24.8325 107.7134 349° North  Level Estimated
Sun 01:01:00 AM 24.9214 107.6947 349° North  Level Estimated
Sun 01:02:00 AM 25.0103 107.6760 349° North  Level Estimated
Sun 01:03:00 AM 25.0993 107.6572 349° North  Level Estimated
Sun 01:04:00 AM 25.1882 107.6384 349° North  Level Estimated
Sun 01:05:00 AM 25.2771 107.6196 349° North  Level Estimated
Sun 01:06:00 AM 25.3661 107.6008 349° North  Level Estimated
Sun 01:07:00 AM 25.4550 107.5819 349° North  Level Estimated
Sun 01:08:00 AM 25.5439 107.5630 349° North  Level Estimated
Sun 01:09:00 AM 25.6328 107.5441 349° North  Level Estimated
Sun 01:10:00 AM 25.7217 107.5252 349° North  Level Estimated
Sun 01:11:00 AM 25.8106 107.5062 349° North  Level Estimated
Sun 01:12:00 AM 25.8995 107.4872 349° North  Level Estimated
Sun 01:13:00 AM 25.9885 107.4682 349° North  Level Estimated
Sun 01:14:00 AM 26.0774 107.4491 349° North  Level Estimated
Sun 01:15:00 AM 26.1663 107.4300 349° North  Level Estimated
Sun 01:16:00 AM 26.2552 107.4109 349° North  Level Estimated
Sun 01:17:00 AM 26.3441 107.3917 349° North  Level Estimated
Sun 01:18:00 AM 26.4330 107.3726 349° North  Level Estimated
Sun 01:19:00 AM 26.5219 107.3534 349° North  Level Estimated
Sun 01:20:00 AM 26.6108 107.3341 349° North  Level Estimated
Sun 01:21:00 AM 26.6996 107.3148 349° North  Level Estimated
Sun 01:22:00 AM 26.7885 107.2955 349° North  Level Estimated
Sun 01:23:00 AM 26.8774 107.2762 349° North  Level Estimated
Sun 01:24:00 AM 26.9663 107.2569 349° North  Level Estimated
Sun 01:25:00 AM 27.0552 107.2375 349° North  Level Estimated
Sun 01:26:00 AM 27.1441 107.2180 349° North  Level Estimated
Sun 01:27:00 AM 27.2329 107.1986 349° North  Level Estimated
Sun 01:28:00 AM 27.3218 107.1791 349° North  Level Estimated
Sun 01:29:00 AM 27.4107 107.1596 349° North  Level Estimated
Sun 01:30:00 AM 27.4995 107.1401 349° North  Level Estimated
Sun 01:31:00 AM 27.5884 107.1205 349° North  Level Estimated
Sun 01:32:00 AM 27.6772 107.1009 349° North  Level Estimated
Sun 01:33:00 AM 27.7661 107.0813 349° North  Level Estimated
Sun 01:34:00 AM 27.8550 107.0616 349° North  Level Estimated
Sun 01:35:00 AM 27.9438 107.0419 349° North  Level Estimated
Sun 01:36:00 AM 28.0327 107.0222 349° North  Level Estimated
Sun 01:37:00 AM 28.1215 107.0024 349° North  Level Estimated
Sun 01:38:00 AM 28.2104 106.9826 349° North  Level Estimated
Sun 01:39:00 AM 28.2992 106.9628 349° North  Level Estimated
Sun 01:40:00 AM 28.3880 106.9429 349° North  Level Estimated
Sun 01:41:00 AM 28.4769 106.9230 349° North  Level Estimated
Sun 01:42:00 AM 28.5657 106.9031 349° North  Level Estimated
Sun 01:43:00 AM 28.6545 106.8831 349° North  Level Estimated
Sun 01:44:00 AM 28.7433 106.8631 349° North  Level Estimated
Sun 01:45:00 AM 28.8322 106.8431 349° North  Level Estimated
Sun 01:46:00 AM 28.9210 106.8230 349° North  Level Estimated
Sun 01:47:00 AM 29.0098 106.8029 349° North  Level Estimated
Sun 01:48:00 AM 29.0986 106.7828 349° North  Level Estimated
Sun 01:49:00 AM 29.1874 106.7626 349° North  Level Estimated
Sun 01:50:00 AM 29.2762 106.7424 349° North  Level Estimated
Sun 01:51:00 AM 29.3650 106.7221 349° North  Level Estimated
Sun 01:52:00 AM 29.4538 106.7019 349° North  Level Estimated
Sun 01:53:00 AM 29.5426 106.6815 349° North  Level Estimated
Sun 01:54:00 AM 29.6314 106.6612 349° North  Level Estimated
Sun 01:55:00 AM 29.7194 106.6410 349° North  Level Estimated
Sun 01:56:00 AM 29.7194 106.6410 60° Northeast  Level Estimated
Sun 01:57:00 AM 29.7194 106.6410 60° Northeast  Level Estimated
Sun 01:58:00 AM 29.7194 106.6410 60° Northeast  Level Estimated
Sun 01:59:00 AM 29.7194 106.6410 60° Northeast  Level Estimated
Sun 02:00:00 AM 29.7194 106.6410 60° Northeast  Level Estimated
Sun 02:01:00 AM 29.7194 106.6410 60° Northeast  Level Estimated
Sun 02:02:00 AM 29.7194 106.6410 60° Northeast  Level Estimated
Sun 02:03:00 AM 29.7194 106.6410 60° Northeast  Level Estimated
Sun 02:04:00 AM 29.7194 106.6410 60° Northeast  Level Estimated
Sun 02:05:00 AM 29.7194 106.6410 60° Northeast  Level Estimated
Sun 02:06:00 AM 29.7194 106.6410 60° Northeast  Level Estimated
Sun 02:07:00 AM 29.7194 106.6410 60° Northeast  Level Estimated
Sun 02:08:00 AM 29.7194 106.6410 60° Northeast  Level Estimated
Sun 02:09:00 AM 29.7194 106.6410 60° Northeast  Level Estimated
Sun 02:10:00 AM 29.7194 106.6410 60° Northeast  Level Estimated
Sun 02:11:00 AM 29.7194 106.6410 60° Northeast  Level Estimated

Login

Don't have an account? Register now (free) for customized features, flight alerts, and more!